createdAt,value
2023-07-03T00:00:59.256Z,16.20
2023-07-03T00:03:26.080Z,16.10
2023-07-03T00:05:53.072Z,16.10
2023-07-03T00:08:20.422Z,16.10
2023-07-03T00:10:47.323Z,16.00
2023-07-03T00:13:14.122Z,16.10
2023-07-03T00:15:41.172Z,16.00
2023-07-03T00:18:07.927Z,16.00
2023-07-03T00:20:34.819Z,16.10
2023-07-03T00:23:01.656Z,16.00
2023-07-03T00:25:28.463Z,16.00
2023-07-03T00:27:55.323Z,16.00
2023-07-03T00:30:22.149Z,16.00
2023-07-03T00:32:48.982Z,16.00
2023-07-03T00:35:15.937Z,16.10
2023-07-03T00:37:42.901Z,16.00
2023-07-03T00:40:12.038Z,16.00
2023-07-03T00:42:39.015Z,16.00
2023-07-03T00:45:09.946Z,16.10
2023-07-03T00:47:37.344Z,16.00
2023-07-03T00:50:04.444Z,16.10
2023-07-03T00:52:31.468Z,15.90
2023-07-03T00:54:59.076Z,15.90
2023-07-03T00:57:27.186Z,15.90
2023-07-03T00:59:54.048Z,15.90
2023-07-03T01:02:37.970Z,16.00
2023-07-03T01:05:14.587Z,16.00
2023-07-03T01:07:42.644Z,16.00
2023-07-03T01:10:19.625Z,16.50
2023-07-03T01:12:50.592Z,16.00
2023-07-03T01:15:23.278Z,16.00
2023-07-03T01:17:52.495Z,15.90
2023-07-03T01:20:21.695Z,16.00
2023-07-03T01:22:57.670Z,16.00
2023-07-03T01:25:26.767Z,16.00
2023-07-03T01:27:55.842Z,16.00
2023-07-03T01:30:23.789Z,16.10
2023-07-03T01:32:53.577Z,16.00
2023-07-03T01:35:21.252Z,16.30
2023-07-03T01:37:53.385Z,16.10
2023-07-03T01:40:24.630Z,16.30
2023-07-03T01:42:53.321Z,16.00
2023-07-03T01:45:20.159Z,15.90
2023-07-03T01:47:47.000Z,15.90
2023-07-03T01:50:23.662Z,16.00
2023-07-03T01:53:03.003Z,15.90
2023-07-03T01:55:40.666Z,15.90
2023-07-03T01:58:22.305Z,16.00
2023-07-03T02:00:51.097Z,16.00
2023-07-03T02:03:41.463Z,16.10
2023-07-03T02:06:37.937Z,15.70
2023-07-03T02:09:08.489Z,14.80
2023-07-03T02:11:35.680Z,13.70
2023-07-03T02:14:02.576Z,13.80
2023-07-03T02:16:32.972Z,13.20
2023-07-03T02:19:00.128Z,13.30
2023-07-03T02:21:28.778Z,13.90
2023-07-03T02:23:55.548Z,13.60
2023-07-03T02:26:22.336Z,13.90
2023-07-03T02:28:49.327Z,14.00
2023-07-03T02:31:16.226Z,13.90
2023-07-03T02:33:43.069Z,13.60
2023-07-03T02:36:09.900Z,14.40
2023-07-03T02:38:36.805Z,14.00
2023-07-03T02:41:04.250Z,14.10
2023-07-03T02:43:33.695Z,14.50
2023-07-03T02:46:05.818Z,14.60
2023-07-03T02:48:32.876Z,14.80
2023-07-03T02:50:59.746Z,14.90
2023-07-03T02:53:26.490Z,15.00
2023-07-03T02:55:55.467Z,15.00
2023-07-03T02:58:22.202Z,15.10
2023-07-03T03:00:49.035Z,15.20
2023-07-03T03:03:15.951Z,15.20
2023-07-03T03:05:42.816Z,15.30
2023-07-03T03:08:09.678Z,15.50
2023-07-03T03:10:36.457Z,15.80
2023-07-03T03:13:03.255Z,15.60
2023-07-03T03:15:31.542Z,15.50
2023-07-03T03:17:58.413Z,15.40
2023-07-03T03:20:25.286Z,15.50
2023-07-03T03:22:52.079Z,14.80
2023-07-03T03:25:19.182Z,14.50
2023-07-03T03:27:46.202Z,14.60
2023-07-03T03:30:13.315Z,14.80
2023-07-03T03:32:40.789Z,14.80
2023-07-03T03:35:08.194Z,14.90
2023-07-03T03:37:34.985Z,14.70
2023-07-03T03:40:01.937Z,15.10
2023-07-03T03:42:28.756Z,14.80
2023-07-03T03:44:55.686Z,14.90
2023-07-03T03:47:22.557Z,15.00
2023-07-03T03:49:49.397Z,15.10
2023-07-03T03:52:16.283Z,15.20
2023-07-03T03:54:43.884Z,15.20
2023-07-03T03:57:10.613Z,15.20
2023-07-03T03:59:37.368Z,15.10
2023-07-03T04:02:04.585Z,15.30
2023-07-03T04:04:31.587Z,15.30
2023-07-03T04:06:58.743Z,15.40
2023-07-03T04:09:25.702Z,15.60
2023-07-03T04:11:52.534Z,15.70
2023-07-03T04:14:19.660Z,15.70
2023-07-03T04:16:47.839Z,15.50
2023-07-03T04:19:15.780Z,15.50
2023-07-03T04:21:42.649Z,15.50
2023-07-03T04:24:09.404Z,15.50
2023-07-03T04:26:39.447Z,15.60
2023-07-03T04:29:06.454Z,15.60
2023-07-03T04:31:34.817Z,15.70
2023-07-03T04:34:01.700Z,15.90
2023-07-03T04:36:28.737Z,16.00
2023-07-03T04:38:58.405Z,16.10
2023-07-03T04:41:28.066Z,16.00
2023-07-03T04:43:58.309Z,16.70
2023-07-03T04:46:29.270Z,16.20
2023-07-03T04:49:00.606Z,16.00
2023-07-03T04:51:32.298Z,15.80
2023-07-03T04:54:00.804Z,15.70
2023-07-03T04:56:28.744Z,15.70
2023-07-03T04:58:55.659Z,15.80
2023-07-03T05:01:23.555Z,15.70
2023-07-03T05:03:50.528Z,15.60
2023-07-03T05:06:17.551Z,15.80
2023-07-03T05:08:44.509Z,16.30
2023-07-03T05:11:11.318Z,16.70
2023-07-03T05:13:38.148Z,17.10
2023-07-03T05:16:05.286Z,17.00
2023-07-03T05:18:32.157Z,17.00
2023-07-03T05:20:59.063Z,17.30
2023-07-03T05:23:25.920Z,16.80
2023-07-03T05:25:52.990Z,17.00
2023-07-03T05:28:19.895Z,16.70
2023-07-03T05:30:56.856Z,16.60
2023-07-03T05:33:25.039Z,16.80
2023-07-03T05:35:54.688Z,16.90
2023-07-03T05:38:22.249Z,16.60
2023-07-03T05:40:51.326Z,16.40
2023-07-03T05:43:18.990Z,16.40
2023-07-03T05:45:48.027Z,16.70
2023-07-03T05:48:15.817Z,16.90
2023-07-03T05:50:43.103Z,16.80
2023-07-03T05:53:10.531Z,16.70
2023-07-03T05:55:37.589Z,16.50
2023-07-03T05:58:04.867Z,16.50
2023-07-03T06:00:34.600Z,17.10
2023-07-03T06:03:03.622Z,17.30
2023-07-03T06:05:31.062Z,17.40
2023-07-03T06:07:58.017Z,17.20
2023-07-03T06:10:25.102Z,16.90
2023-07-03T06:12:51.975Z,16.50
2023-07-03T06:15:18.805Z,16.60
2023-07-03T06:17:46.012Z,16.80
2023-07-03T06:20:13.324Z,16.40
2023-07-03T06:22:43.314Z,16.20
2023-07-03T06:25:11.434Z,16.40
2023-07-03T06:27:38.442Z,16.60
2023-07-03T06:30:05.973Z,17.20
2023-07-03T06:32:33.111Z,16.80
2023-07-03T06:35:00.381Z,17.00
2023-07-03T06:37:28.568Z,17.20
2023-07-03T06:39:55.410Z,17.20
2023-07-03T06:42:23.385Z,16.90
2023-07-03T06:44:50.250Z,17.30
2023-07-03T06:47:17.180Z,17.70
2023-07-03T06:49:44.294Z,17.50
2023-07-03T06:52:11.548Z,17.60
2023-07-03T06:54:38.401Z,17.30
2023-07-03T06:57:05.381Z,17.10
2023-07-03T06:59:32.219Z,17.20
2023-07-03T07:01:59.117Z,17.20
2023-07-03T07:04:29.617Z,17.30
2023-07-03T07:06:57.223Z,17.70
2023-07-03T07:09:24.495Z,17.40
2023-07-03T07:11:51.443Z,17.20
2023-07-03T07:14:18.837Z,16.50
2023-07-03T07:16:45.814Z,15.60
2023-07-03T07:19:13.712Z,15.00
2023-07-03T07:21:42.773Z,15.10
2023-07-03T07:24:21.412Z,15.10
2023-07-03T07:26:49.541Z,15.50
2023-07-03T07:29:16.385Z,15.90
2023-07-03T07:31:43.474Z,17.10
2023-07-03T07:34:11.742Z,18.10
2023-07-03T07:36:39.894Z,17.70
2023-07-03T07:39:08.046Z,17.80
2023-07-03T07:41:35.492Z,18.10
2023-07-03T07:44:02.424Z,18.60
2023-07-03T07:46:31.833Z,18.80
2023-07-03T07:49:00.538Z,19.10
2023-07-03T07:51:28.134Z,18.90
2023-07-03T07:53:56.313Z,18.50
2023-07-03T07:56:24.864Z,18.90
2023-07-03T07:58:51.830Z,19.40
2023-07-03T08:01:18.955Z,19.40
2023-07-03T08:03:46.595Z,19.70
2023-07-03T08:06:15.517Z,19.40
2023-07-03T08:08:42.364Z,19.50
2023-07-03T08:11:10.517Z,19.70
2023-07-03T08:13:40.187Z,19.30
2023-07-03T08:16:08.568Z,19.00
2023-07-03T08:18:35.468Z,19.20
2023-07-03T08:21:02.594Z,19.50
2023-07-03T08:23:31.329Z,19.90
2023-07-03T08:26:00.723Z,20.20
2023-07-03T08:28:28.060Z,20.00
2023-07-03T08:30:54.941Z,19.60
2023-07-03T08:33:21.894Z,18.30
2023-07-03T08:38:18.509Z,16.90
2023-07-03T08:40:45.446Z,17.00
2023-07-03T08:43:20.753Z,17.40
2023-07-03T08:45:50.514Z,18.20
2023-07-03T08:48:25.095Z,17.40
2023-07-03T08:51:00.578Z,17.20
2023-07-03T08:53:35.084Z,18.00
2023-07-03T08:56:21.591Z,18.40
2023-07-03T08:58:53.109Z,18.80
2023-07-03T09:01:34.030Z,19.20
2023-07-03T09:04:38.437Z,19.40
2023-07-03T09:07:17.881Z,19.00
2023-07-03T09:09:56.096Z,18.50
2023-07-03T09:12:29.301Z,18.60
2023-07-03T09:15:02.833Z,19.00
2023-07-03T09:17:31.398Z,19.50
2023-07-03T09:19:59.726Z,20.10
2023-07-03T09:22:30.634Z,19.60
2023-07-03T09:24:59.892Z,19.50
2023-07-03T09:27:28.472Z,19.40
2023-07-03T09:30:03.391Z,19.40
2023-07-03T09:32:32.132Z,19.90
2023-07-03T09:35:13.132Z,20.30
2023-07-03T09:37:42.246Z,20.50
2023-07-03T09:40:21.354Z,20.50
2023-07-03T09:42:50.016Z,20.40
2023-07-03T09:45:20.359Z,20.90
2023-07-03T09:47:50.269Z,20.10
2023-07-03T09:50:24.451Z,20.50
2023-07-03T09:53:07.305Z,20.80
2023-07-03T09:55:36.843Z,20.40
2023-07-03T09:58:15.828Z,19.00
2023-07-03T10:00:52.230Z,18.90
2023-07-03T10:08:30.941Z,19.10
2023-07-03T10:13:42.491Z,18.80
2023-07-03T10:16:11.290Z,18.40
2023-07-03T10:18:43.399Z,19.50
2023-07-03T10:21:14.079Z,20.80
2023-07-03T10:23:42.302Z,21.20
2023-07-03T10:26:18.147Z,21.60
2023-07-03T10:29:05.966Z,20.90
2023-07-03T10:31:46.206Z,20.40
2023-07-03T10:34:23.662Z,20.00
2023-07-03T10:36:55.038Z,18.90
2023-07-03T10:39:31.697Z,17.90
2023-07-03T10:42:03.754Z,17.50
2023-07-03T10:44:37.967Z,18.10
2023-07-03T10:47:37.295Z,19.00
2023-07-03T10:50:04.774Z,19.80
2023-07-03T10:52:59.868Z,20.80
2023-07-03T10:55:46.603Z,21.10
2023-07-03T10:58:47.002Z,20.60
2023-07-03T11:01:32.700Z,19.10
2023-07-03T11:04:23.863Z,19.50
2023-07-03T11:07:32.612Z,20.40
2023-07-03T11:10:19.157Z,20.50
2023-07-03T11:12:57.338Z,20.70
2023-07-03T11:15:46.343Z,20.60
2023-07-03T11:24:22.263Z,20.40
2023-07-03T11:29:37.188Z,19.00
2023-07-03T11:32:06.941Z,18.70
2023-07-03T11:40:27.981Z,19.20
2023-07-03T11:46:12.585Z,19.10
2023-07-03T11:48:39.388Z,19.30
2023-07-03T11:51:09.654Z,18.70
2023-07-03T11:53:38.996Z,18.60
2023-07-03T11:56:11.464Z,18.50
2023-07-03T11:58:38.812Z,18.70
2023-07-03T12:01:26.231Z,18.80
2023-07-03T12:03:56.086Z,18.90
2023-07-03T12:06:58.197Z,18.80
2023-07-03T12:09:32.130Z,18.40
2023-07-03T12:12:01.684Z,18.60
2023-07-03T12:14:43.237Z,18.70
2023-07-03T12:17:28.617Z,18.80
2023-07-03T12:20:07.009Z,18.70
2023-07-03T12:22:46.675Z,18.70
2023-07-03T12:25:21.964Z,18.40
2023-07-03T12:27:50.451Z,17.90
2023-07-03T12:30:36.077Z,17.90
2023-07-03T12:33:03.871Z,19.30
2023-07-03T12:35:43.441Z,19.40
2023-07-03T12:38:11.368Z,19.20
2023-07-03T12:40:45.452Z,19.10
2023-07-03T12:43:18.449Z,19.30
2023-07-03T12:45:53.018Z,19.40
2023-07-03T12:48:22.165Z,19.10
2023-07-03T12:50:57.806Z,18.90
2023-07-03T12:53:29.441Z,18.80
2023-07-03T12:56:02.385Z,18.80
2023-07-03T12:58:29.357Z,18.90
2023-07-03T13:01:01.499Z,18.90
2023-07-03T13:03:28.623Z,19.30
2023-07-03T13:05:55.807Z,19.20
2023-07-03T13:08:23.061Z,18.80
2023-07-03T13:11:03.710Z,19.10
2023-07-03T13:13:30.684Z,19.10
2023-07-03T13:15:57.493Z,19.40
2023-07-03T13:18:24.756Z,19.50
2023-07-03T13:21:00.323Z,18.80
2023-07-03T13:23:36.702Z,18.90
2023-07-03T13:26:08.438Z,19.00
2023-07-03T13:28:39.109Z,18.90
2023-07-03T13:31:38.002Z,19.10
2023-07-03T13:34:19.684Z,19.00
2023-07-03T13:37:03.389Z,19.00
2023-07-03T13:39:33.767Z,18.80
2023-07-03T13:42:00.836Z,19.00
2023-07-03T13:44:27.759Z,18.60
2023-07-03T13:46:56.147Z,18.90
2023-07-03T13:49:23.238Z,18.70
2023-07-03T13:51:51.925Z,19.00
2023-07-03T13:54:19.153Z,19.50
2023-07-03T13:56:46.170Z,19.60
2023-07-03T13:59:13.398Z,19.80
2023-07-03T14:01:42.198Z,20.20
2023-07-03T14:04:10.700Z,20.00
2023-07-03T14:06:37.758Z,19.80
2023-07-03T14:09:05.391Z,20.00
2023-07-03T14:11:32.823Z,20.20
2023-07-03T14:13:59.700Z,20.10
2023-07-03T14:16:26.667Z,19.80
2023-07-03T14:18:53.725Z,19.50
2023-07-03T14:21:23.401Z,19.30
2023-07-03T14:23:50.301Z,19.00
2023-07-03T14:26:17.373Z,19.20
2023-07-03T14:28:45.487Z,19.40
2023-07-03T14:31:14.642Z,19.50
2023-07-03T14:33:42.037Z,19.50
2023-07-03T14:36:09.461Z,19.50
2023-07-03T14:38:36.317Z,19.50
2023-07-03T14:41:04.719Z,19.70
2023-07-03T14:43:31.740Z,19.60
2023-07-03T14:45:58.760Z,19.50
2023-07-03T14:48:25.654Z,19.90
2023-07-03T14:50:52.486Z,19.80
2023-07-03T14:53:19.849Z,20.00
2023-07-03T14:55:57.476Z,19.70
2023-07-03T14:58:24.769Z,20.00
2023-07-03T15:00:53.119Z,19.80
2023-07-03T15:03:20.088Z,19.70
2023-07-03T15:05:47.445Z,19.60
2023-07-03T15:08:15.325Z,19.20
2023-07-03T15:10:43.294Z,19.30
2023-07-03T15:13:10.336Z,19.50
2023-07-03T15:15:37.143Z,19.50
2023-07-03T15:18:04.557Z,19.50
2023-07-03T15:20:31.582Z,19.60
2023-07-03T15:22:58.331Z,19.60
2023-07-03T15:25:25.266Z,19.50
2023-07-03T15:27:52.036Z,19.00
2023-07-03T15:30:18.911Z,18.90
2023-07-03T15:32:50.844Z,18.90
2023-07-03T15:35:17.634Z,18.50
2023-07-03T15:37:44.416Z,18.30
2023-07-03T15:40:11.692Z,18.20
2023-07-03T15:42:39.260Z,18.30
2023-07-03T15:45:06.696Z,18.10
2023-07-03T15:47:37.475Z,18.00
2023-07-03T15:50:06.528Z,18.00
2023-07-03T15:52:33.723Z,18.00
2023-07-03T15:55:00.669Z,18.00
2023-07-03T15:57:28.501Z,17.90
2023-07-03T15:59:55.278Z,17.80
2023-07-03T16:02:22.427Z,17.80
2023-07-03T16:04:49.252Z,17.60
2023-07-03T16:07:16.282Z,17.80
2023-07-03T16:09:43.026Z,17.60
2023-07-03T16:12:09.875Z,17.60
2023-07-03T16:14:36.682Z,17.50
2023-07-03T16:17:03.643Z,17.40
2023-07-03T16:19:30.420Z,17.40
2023-07-03T16:21:57.203Z,17.50
2023-07-03T16:24:24.040Z,17.50
2023-07-03T16:26:50.886Z,17.50
2023-07-03T16:29:18.044Z,17.60
2023-07-03T16:31:46.438Z,17.70
2023-07-03T16:34:14.064Z,17.90
2023-07-03T16:36:40.942Z,17.40
2023-07-03T16:39:08.553Z,17.70
2023-07-03T16:41:38.480Z,17.30
2023-07-03T16:44:05.966Z,17.10
2023-07-03T16:46:32.989Z,17.10
2023-07-03T16:49:00.031Z,17.20
2023-07-03T16:51:28.147Z,17.00
2023-07-03T16:53:55.484Z,17.00
2023-07-03T16:56:24.536Z,16.90
2023-07-03T16:58:52.932Z,17.00
2023-07-03T17:01:22.755Z,16.90
2023-07-03T17:03:51.428Z,16.80
2023-07-03T17:06:26.269Z,16.80
2023-07-03T17:08:54.136Z,16.70
2023-07-03T17:11:21.045Z,16.80
2023-07-03T17:13:49.042Z,17.00
2023-07-03T17:16:16.612Z,16.80
2023-07-03T17:18:43.865Z,16.60
2023-07-03T17:21:10.729Z,16.70
2023-07-03T17:23:38.126Z,16.70
2023-07-03T17:26:05.220Z,16.80
2023-07-03T17:28:32.274Z,16.60
2023-07-03T17:30:59.086Z,16.60
2023-07-03T17:33:25.889Z,16.70
2023-07-03T17:35:54.324Z,16.50
2023-07-03T17:38:21.369Z,16.60
2023-07-03T17:40:49.468Z,16.60
2023-07-03T17:43:22.626Z,16.70
2023-07-03T17:45:50.929Z,16.50
2023-07-03T17:48:18.114Z,16.50
2023-07-03T17:50:47.071Z,16.60
2023-07-03T17:53:14.666Z,16.50
2023-07-03T17:55:42.074Z,16.40
2023-07-03T17:58:08.930Z,16.40
2023-07-03T18:00:35.740Z,16.40
2023-07-03T18:03:02.601Z,16.30
2023-07-03T18:05:36.060Z,16.40
2023-07-03T18:08:04.038Z,16.30
2023-07-03T18:10:35.269Z,16.30
2023-07-03T18:13:02.721Z,16.30
2023-07-03T18:17:59.903Z,16.30
2023-07-03T18:20:26.719Z,16.40
2023-07-03T18:22:53.766Z,16.20
2023-07-03T18:25:20.700Z,16.20
2023-07-03T18:27:47.440Z,16.30
2023-07-03T18:30:14.381Z,16.20
2023-07-03T18:32:41.353Z,16.20
2023-07-03T18:35:09.398Z,16.20
2023-07-03T18:37:37.143Z,16.10
2023-07-03T18:40:05.634Z,16.10
2023-07-03T18:42:32.549Z,16.10
2023-07-03T18:44:59.418Z,16.10
2023-07-03T18:47:30.949Z,16.50
2023-07-03T18:49:58.681Z,16.50
2023-07-03T18:52:25.877Z,16.40
2023-07-03T18:54:53.241Z,16.60
2023-07-03T18:57:20.305Z,16.10
2023-07-03T18:59:48.242Z,16.10
2023-07-03T19:02:16.370Z,16.40
2023-07-03T19:04:44.881Z,16.20
2023-07-03T19:07:12.115Z,16.10
2023-07-03T19:09:39.714Z,16.10
2023-07-03T19:12:07.864Z,16.10
2023-07-03T19:14:34.801Z,16.10
2023-07-03T19:17:01.705Z,16.00
2023-07-03T19:19:28.581Z,16.00
2023-07-03T19:21:55.408Z,16.00
2023-07-03T19:24:22.150Z,16.00
2023-07-03T19:26:50.395Z,15.90
2023-07-03T19:29:17.398Z,16.00
2023-07-03T19:31:44.609Z,16.00
2023-07-03T19:34:11.424Z,16.00
2023-07-03T19:36:38.216Z,15.90
2023-07-03T19:39:05.029Z,16.10
2023-07-03T19:41:31.912Z,16.20
2023-07-03T19:43:59.871Z,16.00
2023-07-03T19:46:26.808Z,16.10
2023-07-03T19:48:55.904Z,16.20
2023-07-03T19:51:23.000Z,16.10
2023-07-03T19:53:50.369Z,16.10
2023-07-03T19:56:19.334Z,16.20
2023-07-03T19:58:46.261Z,16.10
2023-07-03T20:01:13.472Z,16.10
2023-07-03T20:03:40.946Z,16.10
2023-07-03T20:06:18.861Z,16.10
2023-07-03T20:08:50.879Z,16.10
2023-07-03T20:11:17.932Z,16.10
2023-07-03T20:13:46.662Z,16.00
2023-07-03T20:16:13.470Z,15.90
2023-07-03T20:18:40.429Z,15.90
2023-07-03T20:21:11.026Z,15.90
2023-07-03T20:23:37.802Z,15.90
2023-07-03T20:26:04.944Z,15.90
2023-07-03T20:28:32.169Z,15.90
2023-07-03T20:30:59.703Z,15.90
2023-07-03T20:33:26.741Z,16.10
2023-07-03T20:36:02.553Z,16.00
2023-07-03T20:38:30.158Z,16.00
2023-07-03T20:41:16.191Z,16.00
2023-07-03T20:43:44.532Z,16.00
2023-07-03T20:46:13.969Z,16.00
2023-07-03T20:48:42.856Z,16.00
2023-07-03T20:51:21.973Z,16.00
2023-07-03T20:53:59.413Z,16.00
2023-07-03T20:56:31.792Z,16.00
2023-07-03T20:58:59.816Z,16.00
2023-07-03T21:01:31.964Z,16.10
2023-07-03T21:04:01.171Z,16.00
2023-07-03T21:06:36.815Z,16.10
2023-07-03T21:09:04.589Z,16.00
2023-07-03T21:11:33.874Z,16.10
2023-07-03T21:14:05.625Z,16.10
2023-07-03T21:16:35.047Z,16.00
2023-07-03T21:19:02.546Z,16.10
2023-07-03T21:21:32.274Z,16.10
2023-07-03T21:24:07.992Z,16.10
2023-07-03T21:26:36.301Z,16.10
2023-07-03T21:29:04.197Z,16.20
2023-07-03T21:31:33.535Z,16.40
2023-07-03T21:34:00.512Z,16.20
2023-07-03T21:36:29.762Z,16.20
2023-07-03T21:38:58.878Z,16.20
2023-07-03T21:41:30.582Z,16.10
2023-07-03T21:43:59.568Z,16.10
2023-07-03T21:46:27.184Z,16.10
2023-07-03T21:48:57.050Z,16.10
2023-07-03T21:51:26.969Z,16.20
2023-07-03T21:53:55.372Z,16.10
2023-07-03T21:56:24.594Z,16.20
2023-07-03T21:58:53.482Z,16.20
2023-07-03T22:01:25.477Z,16.20
2023-07-03T22:03:54.093Z,16.20
2023-07-03T22:06:22.546Z,16.20
2023-07-03T22:08:49.982Z,16.10
2023-07-03T22:11:17.121Z,16.20
2023-07-03T22:13:44.352Z,16.30
2023-07-03T22:16:13.688Z,16.10
2023-07-03T22:18:40.461Z,16.20
2023-07-03T22:21:07.264Z,16.10
2023-07-03T22:23:34.447Z,16.10
2023-07-03T22:26:01.847Z,16.20
2023-07-03T22:28:30.294Z,16.10
2023-07-03T22:30:58.297Z,16.10
2023-07-03T22:33:25.423Z,16.20
2023-07-03T22:35:53.664Z,16.20
2023-07-03T22:38:21.405Z,16.10
2023-07-03T22:40:52.350Z,16.20
2023-07-03T22:43:20.475Z,16.10
2023-07-03T22:45:48.595Z,16.10
2023-07-03T22:48:15.809Z,16.10
2023-07-03T22:50:43.406Z,16.20
2023-07-03T22:53:11.152Z,16.10
2023-07-03T22:55:41.916Z,16.10
2023-07-03T22:58:12.374Z,16.10
2023-07-03T23:00:40.425Z,16.20
2023-07-03T23:03:10.413Z,16.10
2023-07-03T23:05:46.358Z,16.10
2023-07-03T23:08:17.487Z,16.10
2023-07-03T23:10:52.359Z,16.10
2023-07-03T23:13:24.141Z,16.20
2023-07-03T23:16:10.571Z,16.10
2023-07-03T23:18:39.943Z,16.00
2023-07-03T23:21:15.209Z,16.00
2023-07-03T23:23:42.491Z,16.20
2023-07-03T23:26:14.403Z,16.10
2023-07-03T23:28:43.006Z,16.10
2023-07-03T23:31:15.700Z,16.00
2023-07-03T23:33:48.733Z,16.00
2023-07-03T23:36:17.115Z,16.00
2023-07-03T23:38:43.920Z,16.00
2023-07-03T23:41:11.752Z,16.00
2023-07-03T23:43:39.926Z,16.10
2023-07-03T23:46:08.138Z,15.90
2023-07-03T23:48:35.798Z,15.90
2023-07-03T23:51:04.957Z,16.00
2023-07-03T23:53:33.987Z,15.90
2023-07-03T23:56:04.147Z,16.00
2023-07-03T23:58:31.519Z,15.90
